Burnet Municipal Kate Craddock Field


Codes: KBMQ/
Name: Burnet Municipal Kate Craddock Field
City: Burnet
Country: United States
Elevation: 1284 ft.

Photos at Burnet Municipal Kate Craddock Field


   Photos courtesy of SpottingLog. You can add your own sightings and photos by signing up for a free trial today.



No photos found.

Weather at Burnet Municipal Kate Craddock Field


Time (UTC)DescriptionTempratureWindCloud coverageVisibilityPressureHumidity
15-Apr-2024 18:00Overcast Clouds22°C20 mph, S100%10000m1012hPa82%
15-Apr-2024 21:00Overcast Clouds26°C20 mph, S100%10000m1009hPa65%
16-Apr-2024 00:00Overcast Clouds26°C18 mph, SE100%10000m1007hPa65%
16-Apr-2024 03:00Overcast Clouds21°C18 mph, SE100%10000m1009hPa89%
16-Apr-2024 06:00Overcast Clouds21°C20 mph, S100%10000m1008hPa89%
16-Apr-2024 09:00Overcast Clouds20°C16 mph, S100%10000m1009hPa86%
16-Apr-2024 12:00Overcast Clouds21°C11 mph, S100%10000m1010hPa85%
16-Apr-2024 15:00Overcast Clouds22°C13 mph, S100%10000m1011hPa79%
16-Apr-2024 18:00Overcast Clouds29°C9 mph, SW100%10000m1009hPa32%
16-Apr-2024 21:00Overcast Clouds31°C9 mph, W100%10000m1007hPa14%
17-Apr-2024 00:00Overcast Clouds29°C4 mph, SE100%10000m1007hPa34%
17-Apr-2024 03:00Overcast Clouds23°C9 mph, S100%10000m1010hPa84%
17-Apr-2024 06:00Overcast Clouds21°C9 mph, S100%10000m1011hPa94%
17-Apr-2024 09:00Overcast Clouds21°C9 mph, S100%10000m1010hPa95%
17-Apr-2024 12:00Overcast Clouds20°C7 mph, SW100%10000m1012hPa95%
17-Apr-2024 15:00Overcast Clouds24°C4 mph, SW100%10000m1012hPa73%
17-Apr-2024 18:00Overcast Clouds29°C7 mph, SE100%10000m1011hPa50%
17-Apr-2024 21:00Overcast Clouds32°C7 mph, S99%10000m1010hPa36%
18-Apr-2024 00:00Overcast Clouds29°C13 mph, SE100%10000m1009hPa50%
18-Apr-2024 03:00Overcast Clouds24°C16 mph, SE100%10000m1011hPa70%
18-Apr-2024 06:00Overcast Clouds22°C11 mph, SE100%10000m1013hPa81%
18-Apr-2024 09:00Overcast Clouds20°C7 mph, S100%10000m1012hPa95%
18-Apr-2024 12:00Light Rain20°C4 mph, SE89%10000m1011hPa96%
18-Apr-2024 15:00Overcast Clouds27°C16 mph, SW99%10000m1012hPa60%
18-Apr-2024 18:00Broken Clouds33°C18 mph, S71%10000m1011hPa40%
18-Apr-2024 21:00Clear Sky34°C18 mph, S3%10000m1008hPa35%
19-Apr-2024 00:00Light Rain28°C7 mph, E25%10000m1008hPa49%
19-Apr-2024 03:00Moderate Rain20°C7 mph, E99%7424m1012hPa81%
19-Apr-2024 06:00Moderate Rain20°C18 mph, SE100%10000m1011hPa77%
19-Apr-2024 09:00Overcast Clouds21°C4 mph, E100%10000m1012hPa77%
19-Apr-2024 12:00Overcast Clouds19°C9 mph, NE100%10000m1015hPa89%
19-Apr-2024 15:00Broken Clouds19°C18 mph, NE70%10000m1017hPa78%
19-Apr-2024 18:00Broken Clouds23°C11 mph, NE61%10000m1016hPa63%
19-Apr-2024 21:00Overcast Clouds24°C11 mph, NE96%10000m1014hPa61%
20-Apr-2024 00:00Light Rain22°C11 mph, E98%10000m1014hPa71%
20-Apr-2024 03:00Overcast Clouds21°C11 mph, NE100%10000m1015hPa80%
20-Apr-2024 06:00Light Rain19°C9 mph, NE100%10000m1016hPa89%
20-Apr-2024 09:00Light Rain18°C11 mph, E100%10000m1015hPa90%
20-Apr-2024 12:00Overcast Clouds18°C11 mph, NE100%7829m1015hPa95%
20-Apr-2024 15:00Overcast Clouds19°C11 mph, E100%4253m1017hPa90%